createdAt,value
2018-09-22T00:00:41.738Z,12.20
2018-09-22T00:05:44.843Z,12.20
2018-09-22T00:10:47.930Z,12.10
2018-09-22T00:15:51.058Z,12.10
2018-09-22T00:20:54.209Z,12.10
2018-09-22T00:25:57.317Z,12.00
2018-09-22T00:31:00.403Z,11.90
2018-09-22T00:36:03.555Z,11.80
2018-09-22T00:41:06.663Z,11.70
2018-09-22T00:46:09.804Z,11.70
2018-09-22T00:51:12.927Z,11.70
2018-09-22T00:56:16.027Z,11.80
2018-09-22T01:01:19.134Z,11.90
2018-09-22T01:06:22.260Z,12.00
2018-09-22T01:11:25.376Z,12.00
2018-09-22T01:16:28.504Z,11.90
2018-09-22T01:21:31.871Z,12.00
2018-09-22T01:26:34.947Z,12.00
2018-09-22T01:31:38.151Z,12.00
2018-09-22T01:36:42.302Z,12.10
2018-09-22T01:41:45.417Z,12.10
2018-09-22T01:46:48.528Z,12.20
2018-09-22T01:51:51.657Z,12.20
2018-09-22T01:56:54.901Z,12.20
2018-09-22T02:01:57.988Z,12.20
2018-09-22T02:07:01.079Z,12.10
2018-09-22T02:12:04.180Z,12.00
2018-09-22T02:17:07.341Z,12.00
2018-09-22T02:22:10.446Z,11.90
2018-09-22T02:27:13.556Z,11.80
2018-09-22T02:32:16.679Z,11.80
2018-09-22T02:37:20.265Z,11.80
2018-09-22T02:42:23.377Z,11.80
2018-09-22T02:47:26.627Z,11.70
2018-09-22T02:52:29.873Z,11.60
2018-09-22T02:57:33.001Z,11.60
2018-09-22T03:02:36.067Z,11.60
2018-09-22T03:07:39.176Z,11.50
2018-09-22T03:12:42.310Z,11.50
2018-09-22T03:17:45.441Z,11.50
2018-09-22T03:22:48.669Z,11.50
2018-09-22T03:27:51.753Z,11.50
2018-09-22T03:32:54.859Z,11.40
2018-09-22T03:37:58.195Z,11.40
2018-09-22T03:43:01.280Z,11.40
2018-09-22T03:48:04.371Z,11.40
2018-09-22T03:53:07.481Z,11.40
2018-09-22T03:58:10.586Z,11.30
2018-09-22T04:03:13.727Z,11.30
2018-09-22T04:08:16.886Z,11.30
2018-09-22T04:13:19.973Z,11.40
2018-09-22T04:18:23.086Z,11.40
2018-09-22T04:23:26.189Z,11.40
2018-09-22T04:28:29.271Z,11.20
2018-09-22T04:33:32.555Z,11.10
2018-09-22T04:38:35.933Z,11.10
2018-09-22T04:43:39.051Z,11.00
2018-09-22T04:48:42.128Z,10.90
2018-09-22T04:53:45.472Z,10.90
2018-09-22T04:58:48.618Z,10.90
2018-09-22T05:03:51.741Z,11.00
2018-09-22T05:08:55.654Z,11.20
2018-09-22T05:13:58.765Z,11.30
2018-09-22T05:19:01.840Z,11.40
2018-09-22T05:24:04.945Z,11.30
2018-09-22T05:29:08.163Z,11.30
2018-09-22T05:34:11.257Z,11.30
2018-09-22T05:39:14.369Z,11.30
2018-09-22T05:44:17.487Z,11.30
2018-09-22T05:49:20.771Z,11.40
2018-09-22T05:54:24.052Z,11.20
2018-09-22T05:59:27.203Z,11.10
2018-09-22T06:04:30.387Z,11.10
2018-09-22T06:09:33.529Z,11.00
2018-09-22T06:14:36.653Z,11.00
2018-09-22T06:19:39.789Z,11.00
2018-09-22T06:24:43.062Z,11.10
2018-09-22T06:29:46.135Z,11.20
2018-09-22T06:34:49.205Z,11.40
2018-09-22T06:39:52.345Z,11.40
2018-09-22T06:44:55.433Z,11.60
2018-09-22T06:49:58.531Z,11.80
2018-09-22T06:55:01.607Z,12.00
2018-09-22T07:00:04.900Z,12.20
2018-09-22T07:05:08.008Z,13.10
2018-09-22T07:10:11.133Z,13.90
2018-09-22T07:15:14.444Z,13.80
2018-09-22T07:20:17.551Z,14.70
2018-09-22T07:25:20.715Z,14.60
2018-09-22T07:30:23.825Z,14.30
2018-09-22T07:35:26.945Z,14.30
2018-09-22T07:40:30.049Z,14.80
2018-09-22T07:45:33.213Z,15.40
2018-09-22T07:50:36.237Z,16.00
2018-09-22T07:55:39.884Z,16.80
2018-09-22T08:00:43.340Z,17.40
2018-09-22T08:05:46.380Z,18.20
2018-09-22T08:10:49.491Z,17.80
2018-09-22T08:15:52.581Z,17.20
2018-09-22T08:20:55.650Z,16.00
2018-09-22T08:25:58.759Z,15.60
2018-09-22T08:31:01.821Z,15.60
2018-09-22T08:36:05.468Z,15.80
2018-09-22T08:41:08.515Z,15.70
2018-09-22T08:46:11.658Z,16.00
2018-09-22T08:51:14.806Z,16.00
2018-09-22T08:56:17.979Z,15.80
2018-09-22T09:01:21.133Z,15.60
2018-09-22T09:06:29.923Z,15.30
2018-09-22T09:11:32.980Z,15.40
2018-09-22T09:16:36.073Z,15.80
2018-09-22T09:21:39.175Z,16.10
2018-09-22T09:26:42.255Z,16.50
2018-09-22T09:31:45.360Z,16.50
2018-09-22T09:36:48.444Z,16.80
2018-09-22T09:41:51.486Z,17.00
2018-09-22T09:46:54.579Z,17.00
2018-09-22T09:51:57.731Z,16.70
2018-09-22T09:57:00.805Z,16.80
2018-09-22T10:02:03.885Z,17.20
2018-09-22T10:07:06.940Z,17.20
2018-09-22T10:12:10.069Z,16.80
2018-09-22T10:17:13.461Z,16.40
2018-09-22T10:22:16.609Z,16.10
2018-09-22T10:27:19.651Z,16.10
2018-09-22T10:32:22.772Z,16.30
2018-09-22T10:37:25.832Z,16.10
2018-09-22T10:42:28.887Z,16.00
2018-09-22T10:47:32.019Z,16.10
2018-09-22T10:52:35.166Z,16.20
2018-09-22T10:57:38.309Z,16.20
2018-09-22T11:02:41.376Z,16.30
2018-09-22T11:07:44.474Z,17.00
2018-09-22T11:12:47.663Z,17.00
2018-09-22T11:17:50.948Z,16.70
2018-09-22T11:22:54.326Z,16.80
2018-09-22T11:27:57.497Z,16.70
2018-09-22T11:33:00.559Z,16.70
2018-09-22T11:38:03.741Z,16.70
2018-09-22T11:43:07.140Z,16.50
2018-09-22T11:48:10.241Z,16.60
2018-09-22T11:53:13.396Z,16.60
2018-09-22T11:58:16.489Z,16.70
2018-09-22T12:03:19.630Z,16.90
2018-09-22T12:08:22.836Z,17.30
2018-09-22T12:13:25.968Z,17.30
2018-09-22T12:23:38.769Z,17.10
2018-09-22T12:28:41.861Z,17.00
2018-09-22T12:33:44.925Z,16.90
2018-09-22T12:38:48.697Z,16.90
2018-09-22T12:43:51.815Z,16.90
2018-09-22T12:48:54.880Z,17.10
2018-09-22T12:53:58.004Z,17.50
2018-09-22T12:59:01.297Z,17.60
2018-09-22T13:04:04.357Z,17.60
2018-09-22T13:09:08.559Z,17.60
2018-09-22T13:14:11.559Z,17.60
2018-09-22T13:19:14.618Z,17.50
2018-09-22T13:24:17.774Z,17.60
2018-09-22T13:29:20.839Z,17.70
2018-09-22T13:34:23.953Z,17.90
2018-09-22T13:39:27.090Z,17.70
2018-09-22T13:44:30.177Z,17.70
2018-09-22T13:49:33.229Z,17.60
2018-09-22T13:54:36.293Z,17.60
2018-09-22T13:59:39.336Z,17.70
2018-09-22T14:04:42.405Z,17.80
2018-09-22T14:09:45.425Z,17.80
2018-09-22T14:14:48.491Z,17.80
2018-09-22T14:19:51.535Z,17.70
2018-09-22T14:24:54.717Z,17.60
2018-09-22T14:29:57.808Z,17.70
2018-09-22T14:35:01.214Z,17.70
2018-09-22T14:40:04.684Z,17.60
2018-09-22T14:45:07.762Z,17.60
2018-09-22T14:50:10.948Z,17.60
2018-09-22T15:00:15.684Z,17.50
2018-09-22T15:05:18.803Z,17.40
2018-09-22T15:10:21.885Z,17.30
2018-09-22T15:15:24.999Z,17.30
2018-09-22T15:20:28.191Z,17.40
2018-09-22T15:25:31.259Z,17.40
2018-09-22T15:30:34.608Z,17.30
2018-09-22T15:35:37.651Z,17.30
2018-09-22T15:40:40.757Z,17.20
2018-09-22T15:45:44.173Z,17.20
2018-09-22T15:50:47.281Z,17.10
2018-09-22T15:55:50.359Z,17.00
2018-09-22T16:00:53.467Z,16.90
2018-09-22T16:05:56.482Z,16.80
2018-09-22T16:10:59.569Z,16.70
2018-09-22T16:16:02.684Z,16.60
2018-09-22T16:21:06.103Z,16.50
2018-09-22T16:26:09.314Z,16.40
2018-09-22T16:31:12.632Z,16.40
2018-09-22T16:36:15.750Z,16.30
2018-09-22T16:41:19.015Z,16.30
2018-09-22T16:46:22.062Z,16.20
2018-09-22T16:51:25.307Z,16.00
2018-09-22T16:56:28.482Z,15.90
2018-09-22T17:01:31.588Z,15.80
2018-09-22T17:06:34.703Z,15.80
2018-09-22T17:11:37.811Z,15.70
2018-09-22T17:16:41.010Z,15.60
2018-09-22T17:21:45.383Z,15.60
2018-09-22T17:26:48.532Z,15.50
2018-09-22T17:31:51.635Z,15.50
2018-09-22T17:36:54.844Z,15.40
2018-09-22T17:41:57.905Z,15.40
2018-09-22T17:47:01.004Z,15.30
2018-09-22T17:52:04.089Z,15.20
2018-09-22T17:57:07.361Z,15.20
2018-09-22T18:02:10.494Z,15.20
2018-09-22T18:07:13.814Z,15.10
2018-09-22T18:12:16.931Z,15.10
2018-09-22T18:17:20.717Z,15.10
2018-09-22T18:22:23.777Z,15.00
2018-09-22T18:27:26.847Z,15.00
2018-09-22T18:32:30.666Z,14.90
2018-09-22T18:37:33.772Z,14.90
2018-09-22T18:42:37.037Z,14.80
2018-09-22T18:47:40.151Z,14.80
2018-09-22T18:52:43.258Z,14.80
2018-09-22T18:57:46.326Z,14.70
2018-09-22T19:02:49.491Z,14.70
2018-09-22T19:07:52.576Z,14.70
2018-09-22T19:12:56.436Z,14.70
2018-09-22T19:18:34.343Z,14.70
2018-09-22T19:23:39.527Z,14.60
2018-09-22T19:28:48.371Z,14.60
2018-09-22T19:33:58.324Z,14.70
2018-09-22T19:39:07.858Z,14.60
2018-09-22T19:44:18.048Z,14.50
2018-09-22T19:49:24.822Z,14.20
2018-09-22T19:54:27.895Z,14.00
2018-09-22T19:59:31.000Z,13.90
2018-09-22T20:04:34.130Z,13.80
2018-09-22T20:09:37.205Z,13.50
2018-09-22T20:14:40.362Z,13.40
2018-09-22T20:19:43.454Z,13.40
2018-09-22T20:24:47.799Z,13.20
2018-09-22T20:29:50.914Z,13.20
2018-09-22T20:34:54.009Z,13.20
2018-09-22T20:39:57.118Z,13.20
2018-09-22T20:45:00.264Z,13.00
2018-09-22T20:50:03.342Z,12.90
2018-09-22T21:00:33.636Z,12.80
2018-09-22T21:05:36.885Z,12.80
2018-09-22T21:10:39.950Z,12.70
2018-09-22T21:15:43.238Z,12.70
2018-09-22T21:20:46.358Z,12.70
2018-09-22T21:25:49.395Z,12.70
2018-09-22T21:30:52.651Z,12.60
2018-09-22T21:35:55.596Z,12.60
2018-09-22T21:40:58.710Z,12.50
2018-09-22T21:46:01.846Z,12.50
2018-09-22T21:51:04.955Z,12.50
2018-09-22T21:56:08.391Z,12.30
2018-09-22T22:01:16.820Z,12.20
2018-09-22T22:06:19.884Z,12.10
2018-09-22T22:11:23.033Z,12.10
2018-09-22T22:16:26.065Z,12.00
2018-09-22T22:21:29.184Z,12.00
2018-09-22T22:26:32.357Z,11.90
2018-09-22T22:31:35.410Z,11.80
2018-09-22T22:36:38.720Z,11.80
2018-09-22T22:41:41.835Z,11.80
2018-09-22T22:46:45.009Z,11.70
2018-09-22T22:51:48.056Z,11.70
2018-09-22T22:56:51.137Z,11.70
2018-09-22T23:01:54.215Z,11.70
2018-09-22T23:06:57.329Z,11.60
2018-09-22T23:12:00.606Z,11.50
2018-09-22T23:17:03.736Z,11.50
2018-09-22T23:22:13.619Z,11.50
2018-09-22T23:27:16.782Z,11.50
2018-09-22T23:32:20.065Z,11.50
2018-09-22T23:37:23.788Z,11.50
2018-09-22T23:42:27.637Z,11.40
2018-09-22T23:47:30.784Z,11.40
2018-09-22T23:52:34.007Z,11.40
2018-09-22T23:57:37.145Z,11.40
